sensor_id;sensor_type;location;lat;lon;timestamp;pressure;altitude;pressure_sealevel;temperature;humidity
46303;BME280;32029;51.358;5.628;2023-05-02T00:01:17;101710.63;;;15.20;74.82
46303;BME280;32029;51.358;5.628;2023-05-02T00:03:44;101726.44;;;15.27;75.09
46303;BME280;32029;51.358;5.628;2023-05-02T00:06:11;101726.03;;;15.30;74.95
46303;BME280;32029;51.358;5.628;2023-05-02T00:08:38;101737.56;;;15.33;74.92
46303;BME280;32029;51.358;5.628;2023-05-02T00:11:04;101725.19;;;15.29;74.81
46303;BME280;32029;51.358;5.628;2023-05-02T00:13:31;101721.28;;;15.24;74.55
46303;BME280;32029;51.358;5.628;2023-05-02T00:15:59;101720.22;;;15.25;74.45
46303;BME280;32029;51.358;5.628;2023-05-02T00:18:26;101710.22;;;15.24;74.48
46303;BME280;32029;51.358;5.628;2023-05-02T00:20:54;101717.06;;;15.28;74.18
46303;BME280;32029;51.358;5.628;2023-05-02T00:23:21;101736.66;;;15.26;73.55
46303;BME280;32029;51.358;5.628;2023-05-02T00:25:47;101751.56;;;15.32;73.74
46303;BME280;32029;51.358;5.628;2023-05-02T00:28:14;101740.78;;;15.15;73.98
46303;BME280;32029;51.358;5.628;2023-05-02T00:30:44;101723.16;;;15.02;73.74
46303;BME280;32029;51.358;5.628;2023-05-02T00:33:12;101749.06;;;15.15;73.88
46303;BME280;32029;51.358;5.628;2023-05-02T00:35:40;101771.44;;;15.20;73.78
46303;BME280;32029;51.358;5.628;2023-05-02T00:38:06;101765.06;;;15.20;73.86
46303;BME280;32029;51.358;5.628;2023-05-02T00:40:48;101740.91;;;15.07;73.79
46303;BME280;32029;51.358;5.628;2023-05-02T00:43:15;101758.03;;;15.17;74.15
46303;BME280;32029;51.358;5.628;2023-05-02T00:45:43;101766.72;;;15.14;74.20
46303;BME280;32029;51.358;5.628;2023-05-02T00:48:11;101769.47;;;15.14;74.34
46303;BME280;32029;51.358;5.628;2023-05-02T00:50:41;101770.13;;;15.16;74.43
46303;BME280;32029;51.358;5.628;2023-05-02T00:53:09;101769.47;;;15.14;74.42
46303;BME280;32029;51.358;5.628;2023-05-02T00:55:37;101757.09;;;15.10;74.24
46303;BME280;32029;51.358;5.628;2023-05-02T00:58:13;101754.72;;;15.07;74.39
46303;BME280;32029;51.358;5.628;2023-05-02T01:01:07;101767.66;;;15.22;74.44
46303;BME280;32029;51.358;5.628;2023-05-02T01:03:50;101762.13;;;15.22;74.47
46303;BME280;32029;51.358;5.628;2023-05-02T01:06:58;101774.88;;;15.23;74.63
46303;BME280;32029;51.358;5.628;2023-05-02T01:09:41;101776.59;;;15.24;74.54
46303;BME280;32029;51.358;5.628;2023-05-02T01:14:52;101739.06;;;15.14;74.48
46303;BME280;32029;51.358;5.628;2023-05-02T01:17:26;101750.63;;;15.25;74.56
46303;BME280;32029;51.358;5.628;2023-05-02T01:19:57;101760.53;;;15.34;74.55
46303;BME280;32029;51.358;5.628;2023-05-02T01:22:28;101767.78;;;15.35;74.41
46303;BME280;32029;51.358;5.628;2023-05-02T01:25:13;101763.97;;;15.36;74.45
46303;BME280;32029;51.358;5.628;2023-05-02T01:28:13;101765.00;;;15.35;74.25
46303;BME280;32029;51.358;5.628;2023-05-02T01:30:46;101763.91;;;15.29;74.20
46303;BME280;32029;51.358;5.628;2023-05-02T01:33:16;101751.22;;;15.20;74.17
46303;BME280;32029;51.358;5.628;2023-05-02T01:35:45;101762.38;;;15.27;74.19
46303;BME280;32029;51.358;5.628;2023-05-02T01:38:16;101766.38;;;15.24;74.36
46303;BME280;32029;51.358;5.628;2023-05-02T01:40:45;101761.31;;;15.06;74.05
46303;BME280;32029;51.358;5.628;2023-05-02T01:43:14;101776.31;;;15.18;73.85
46303;BME280;32029;51.358;5.628;2023-05-02T01:45:43;101788.44;;;15.17;73.96
46303;BME280;32029;51.358;5.628;2023-05-02T01:48:13;101782.91;;;15.17;73.76
46303;BME280;32029;51.358;5.628;2023-05-02T01:50:42;101748.09;;;14.87;73.77
46303;BME280;32029;51.358;5.628;2023-05-02T01:53:10;101790.53;;;15.15;73.47
46303;BME280;32029;51.358;5.628;2023-05-02T01:55:42;101793.66;;;15.12;73.38
46303;BME280;32029;51.358;5.628;2023-05-02T01:58:10;101753.63;;;14.87;73.49
46303;BME280;32029;51.358;5.628;2023-05-02T02:00:39;101807.22;;;15.07;73.33
46303;BME280;32029;51.358;5.628;2023-05-02T02:03:06;101799.31;;;15.04;73.44
46303;BME280;32029;51.358;5.628;2023-05-02T02:05:35;101803.13;;;15.03;73.39
46303;BME280;32029;51.358;5.628;2023-05-02T02:08:03;101781.91;;;14.89;73.59
46303;BME280;32029;51.358;5.628;2023-05-02T02:10:35;101806.97;;;15.02;73.51
46303;BME280;32029;51.358;5.628;2023-05-02T02:13:10;101813.50;;;15.01;73.00
46303;BME280;32029;51.358;5.628;2023-05-02T02:15:40;101812.19;;;14.97;72.90
46303;BME280;32029;51.358;5.628;2023-05-02T02:18:19;101806.97;;;14.87;72.86
46303;BME280;32029;51.358;5.628;2023-05-02T02:20:49;101737.22;;;14.41;72.69
46303;BME280;32029;51.358;5.628;2023-05-02T02:23:18;101803.56;;;14.70;72.98
46303;BME280;32029;51.358;5.628;2023-05-02T02:25:48;101817.66;;;14.76;73.01
46303;BME280;32029;51.358;5.628;2023-05-02T02:28:16;101822.22;;;14.68;73.19
46303;BME280;32029;51.358;5.628;2023-05-02T02:30:42;101820.59;;;14.59;73.44
46303;BME280;32029;51.358;5.628;2023-05-02T02:33:09;101827.94;;;14.52;73.45
46303;BME280;32029;51.358;5.628;2023-05-02T02:35:42;101821.97;;;14.40;73.51
46303;BME280;32029;51.358;5.628;2023-05-02T02:40:56;101838.06;;;14.37;74.23
46303;BME280;32029;51.358;5.628;2023-05-02T02:51:53;101815.94;;;14.22;75.53
46303;BME280;32029;51.358;5.628;2023-05-02T02:54:45;101833.59;;;14.36;75.68
46303;BME280;32029;51.358;5.628;2023-05-02T02:57:27;101838.06;;;14.37;75.76
46303;BME280;32029;51.358;5.628;2023-05-02T03:00:06;101841.47;;;14.39;76.07
46303;BME280;32029;51.358;5.628;2023-05-02T03:02:34;101803.06;;;14.14;75.91
46303;BME280;32029;51.358;5.628;2023-05-02T03:05:04;101808.88;;;14.19;76.16
46303;BME280;32029;51.358;5.628;2023-05-02T03:07:32;101807.00;;;14.20;75.94
46303;BME280;32029;51.358;5.628;2023-05-02T03:10:02;101853.50;;;14.46;76.08
46303;BME280;32029;51.358;5.628;2023-05-02T03:12:29;101862.16;;;14.43;76.37
46303;BME280;32029;51.358;5.628;2023-05-02T03:15:15;101869.66;;;14.34;76.63
46303;BME280;32029;51.358;5.628;2023-05-02T03:17:58;101868.16;;;14.32;77.06
46303;BME280;32029;51.358;5.628;2023-05-02T03:20:25;101880.69;;;14.34;77.11
46303;BME280;32029;51.358;5.628;2023-05-02T03:22:52;101873.09;;;14.36;77.18
46303;BME280;32029;51.358;5.628;2023-05-02T03:25:18;101832.47;;;14.07;77.43
46303;BME280;32029;51.358;5.628;2023-05-02T03:27:45;101882.91;;;14.39;77.42
46303;BME280;32029;51.358;5.628;2023-05-02T03:30:12;101865.06;;;14.27;77.12
46303;BME280;32029;51.358;5.628;2023-05-02T03:32:39;101878.25;;;14.39;77.03
46303;BME280;32029;51.358;5.628;2023-05-02T03:35:05;101881.19;;;14.38;77.02
46303;BME280;32029;51.358;5.628;2023-05-02T03:37:35;101879.47;;;14.37;77.15
46303;BME280;32029;51.358;5.628;2023-05-02T03:40:02;101891.09;;;14.32;77.48
46303;BME280;32029;51.358;5.628;2023-05-02T03:42:29;101887.06;;;14.35;77.58
46303;BME280;32029;51.358;5.628;2023-05-02T03:44:55;101891.09;;;14.32;77.72
46303;BME280;32029;51.358;5.628;2023-05-02T03:47:22;101853.25;;;14.18;77.97
46303;BME280;32029;51.358;5.628;2023-05-02T03:49:49;101890.88;;;14.34;78.11
46303;BME280;32029;51.358;5.628;2023-05-02T03:52:16;101890.22;;;14.32;78.32
46303;BME280;32029;51.358;5.628;2023-05-02T03:54:42;101864.47;;;14.16;78.69
46303;BME280;32029;51.358;5.628;2023-05-02T03:57:09;101856.22;;;14.16;78.69
46303;BME280;32029;51.358;5.628;2023-05-02T03:59:37;101892.59;;;14.35;78.49
46303;BME280;32029;51.358;5.628;2023-05-02T04:02:07;101898.50;;;14.32;78.49
46303;BME280;32029;51.358;5.628;2023-05-02T04:04:34;101885.06;;;14.29;78.72
46303;BME280;32029;51.358;5.628;2023-05-02T04:07:01;101898.81;;;14.37;78.71
46303;BME280;32029;51.358;5.628;2023-05-02T04:09:28;101899.09;;;14.42;78.39
46303;BME280;32029;51.358;5.628;2023-05-02T04:11:55;101908.06;;;14.44;78.38
46303;BME280;32029;51.358;5.628;2023-05-02T04:14:22;101911.47;;;14.46;78.10
46303;BME280;32029;51.358;5.628;2023-05-02T04:16:49;101883.28;;;14.36;78.20
46303;BME280;32029;51.358;5.628;2023-05-02T04:19:17;101899.94;;;14.42;78.21
46303;BME280;32029;51.358;5.628;2023-05-02T04:21:44;101917.34;;;14.51;78.18
46303;BME280;32029;51.358;5.628;2023-05-02T04:24:12;101915.44;;;14.52;78.39
46303;BME280;32029;51.358;5.628;2023-05-02T04:26:39;101904.44;;;14.43;78.34
46303;BME280;32029;51.358;5.628;2023-05-02T04:29:05;101924.38;;;14.54;78.31
46303;BME280;32029;51.358;5.628;2023-05-02T04:31:32;101920.44;;;14.48;78.58
46303;BME280;32029;51.358;5.628;2023-05-02T04:33:59;101889.53;;;14.30;78.69
46303;BME280;32029;51.358;5.628;2023-05-02T04:36:26;101934.38;;;14.55;78.88
46303;BME280;32029;51.358;5.628;2023-05-02T04:38:55;101943.91;;;14.52;79.28
46303;BME280;32029;51.358;5.628;2023-05-02T04:41:22;101950.28;;;14.53;79.46
46303;BME280;32029;51.358;5.628;2023-05-02T04:43:49;101937.72;;;14.50;79.42
46303;BME280;32029;51.358;5.628;2023-05-02T04:46:16;101942.91;;;14.45;78.95
46303;BME280;32029;51.358;5.628;2023-05-02T04:48:43;101926.34;;;14.22;79.13
46303;BME280;32029;51.358;5.628;2023-05-02T04:51:10;101955.56;;;14.39;79.16
46303;BME280;32029;51.358;5.628;2023-05-02T04:53:37;101969.53;;;14.38;79.36
46303;BME280;32029;51.358;5.628;2023-05-02T04:56:04;101969.19;;;14.41;78.68
46303;BME280;32029;51.358;5.628;2023-05-02T04:58:31;101971.25;;;14.39;78.06
46303;BME280;32029;51.358;5.628;2023-05-02T05:00:58;101989.56;;;14.40;76.50
46303;BME280;32029;51.358;5.628;2023-05-02T05:03:24;101968.63;;;14.22;75.25
46303;BME280;32029;51.358;5.628;2023-05-02T05:05:51;101987.59;;;14.26;74.06
46303;BME280;32029;51.358;5.628;2023-05-02T05:08:18;101998.97;;;14.22;71.89
46303;BME280;32029;51.358;5.628;2023-05-02T05:10:44;101999.41;;;14.11;71.27
46303;BME280;32029;51.358;5.628;2023-05-02T05:13:11;102013.44;;;14.02;71.06
46303;BME280;32029;51.358;5.628;2023-05-02T05:15:39;101990.63;;;13.85;71.22
46303;BME280;32029;51.358;5.628;2023-05-02T05:18:05;102016.06;;;13.95;71.04
46303;BME280;32029;51.358;5.628;2023-05-02T05:20:32;102002.84;;;13.82;71.04
46303;BME280;32029;51.358;5.628;2023-05-02T05:22:59;102023.34;;;13.88;70.92
46303;BME280;32029;51.358;5.628;2023-05-02T05:25:26;102034.56;;;13.86;71.22
46303;BME280;32029;51.358;5.628;2023-05-02T05:27:53;101998.09;;;13.68;71.17
46303;BME280;32029;51.358;5.628;2023-05-02T05:30:21;102012.38;;;13.71;70.52
46303;BME280;32029;51.358;5.628;2023-05-02T05:32:48;102045.41;;;13.88;70.41
46303;BME280;32029;51.358;5.628;2023-05-02T05:35:14;102028.38;;;13.76;70.51
46303;BME280;32029;51.358;5.628;2023-05-02T05:37:41;102047.81;;;13.91;70.04
46303;BME280;32029;51.358;5.628;2023-05-02T05:40:09;102035.09;;;13.82;69.39
46303;BME280;32029;51.358;5.628;2023-05-02T05:42:36;102021.66;;;13.79;69.06
46303;BME280;32029;51.358;5.628;2023-05-02T05:45:02;102060.53;;;14.00;68.38
46303;BME280;32029;51.358;5.628;2023-05-02T05:47:29;102066.94;;;14.01;68.17
46303;BME280;32029;51.358;5.628;2023-05-02T05:49:56;102052.81;;;13.87;68.07
46303;BME280;32029;51.358;5.628;2023-05-02T05:52:22;102042.16;;;13.84;68.39
46303;BME280;32029;51.358;5.628;2023-05-02T05:54:52;102064.47;;;14.06;67.81
46303;BME280;32029;51.358;5.628;2023-05-02T05:57:19;102066.03;;;14.08;67.45
46303;BME280;32029;51.358;5.628;2023-05-02T05:59:46;102060.50;;;14.08;67.24
46303;BME280;32029;51.358;5.628;2023-05-02T06:02:13;102037.47;;;13.93;66.51
46303;BME280;32029;51.358;5.628;2023-05-02T06:04:40;102067.09;;;13.99;66.28
46303;BME280;32029;51.358;5.628;2023-05-02T06:07:07;102080.53;;;14.02;66.11
46303;BME280;32029;51.358;5.628;2023-05-02T06:09:34;102082.59;;;14.00;65.73
46303;BME280;32029;51.358;5.628;2023-05-02T06:12:01;102059.75;;;13.83;64.93
46303;BME280;32029;51.358;5.628;2023-05-02T06:14:28;102084.03;;;13.88;63.84
46303;BME280;32029;51.358;5.628;2023-05-02T06:16:58;102094.06;;;13.81;64.32
46303;BME280;32029;51.358;5.628;2023-05-02T06:19:24;102087.56;;;13.73;63.48
46303;BME280;32029;51.358;5.628;2023-05-02T06:21:51;102063.81;;;13.56;63.80
46303;BME280;32029;51.358;5.628;2023-05-02T06:24:18;102095.13;;;13.71;63.88
46303;BME280;32029;51.358;5.628;2023-05-02T06:26:44;102099.44;;;13.74;63.97
46303;BME280;32029;51.358;5.628;2023-05-02T06:29:12;102099.09;;;13.77;63.33
46303;BME280;32029;51.358;5.628;2023-05-02T06:31:39;102098.06;;;13.78;63.03
46303;BME280;32029;51.358;5.628;2023-05-02T06:34:05;102102.34;;;13.81;63.29
46303;BME280;32029;51.358;5.628;2023-05-02T06:36:32;102116.63;;;13.84;63.29
46303;BME280;32029;51.358;5.628;2023-05-02T06:38:59;102106.69;;;13.75;62.88
46303;BME280;32029;51.358;5.628;2023-05-02T06:41:25;102103.72;;;13.77;62.29
46303;BME280;32029;51.358;5.628;2023-05-02T06:43:52;102085.84;;;13.64;62.45
46303;BME280;32029;51.358;5.628;2023-05-02T06:46:19;102115.47;;;13.79;62.26
46303;BME280;32029;51.358;5.628;2023-05-02T06:48:46;102108.25;;;13.69;62.52
46303;BME280;32029;51.358;5.628;2023-05-02T06:51:13;102025.63;;;13.20;62.80
46303;BME280;32029;51.358;5.628;2023-05-02T06:53:40;102128.91;;;13.82;62.96
46303;BME280;32029;51.358;5.628;2023-05-02T06:56:07;102132.16;;;13.85;63.56
46303;BME280;32029;51.358;5.628;2023-05-02T06:58:33;102113.78;;;13.69;64.25
46303;BME280;32029;51.358;5.628;2023-05-02T07:01:00;102140.78;;;13.90;64.35
46303;BME280;32029;51.358;5.628;2023-05-02T07:03:27;102148.50;;;13.95;64.59
46303;BME280;32029;51.358;5.628;2023-05-02T07:05:54;102146.75;;;14.02;64.50
46303;BME280;32029;51.358;5.628;2023-05-02T07:08:21;102151.59;;;14.08;64.03
46303;BME280;32029;51.358;5.628;2023-05-02T07:10:51;102148.44;;;14.11;64.07
46303;BME280;32029;51.358;5.628;2023-05-02T07:13:17;102154.31;;;14.16;63.84
46303;BME280;32029;51.358;5.628;2023-05-02T07:15:44;102162.88;;;14.30;63.58
46303;BME280;32029;51.358;5.628;2023-05-02T07:18:10;102165.78;;;14.36;63.24
46303;BME280;32029;51.358;5.628;2023-05-02T07:20:38;102173.81;;;14.46;63.22
46303;BME280;32029;51.358;5.628;2023-05-02T07:23:07;102158.16;;;14.38;62.91
46303;BME280;32029;51.358;5.628;2023-05-02T07:25:34;102183.06;;;14.69;62.72
46303;BME280;32029;51.358;5.628;2023-05-02T07:28:02;102161.44;;;14.73;62.70
46303;BME280;32029;51.358;5.628;2023-05-02T07:30:29;102190.25;;;15.02;62.18
46303;BME280;32029;51.358;5.628;2023-05-02T07:32:55;102191.59;;;15.14;61.84
46303;BME280;32029;51.358;5.628;2023-05-02T07:35:22;102175.06;;;15.06;61.05
46303;BME280;32029;51.358;5.628;2023-05-02T07:37:50;102181.25;;;15.08;61.46
46303;BME280;32029;51.358;5.628;2023-05-02T07:40:19;102196.22;;;15.13;61.51
46303;BME280;32029;51.358;5.628;2023-05-02T07:42:47;102184.16;;;15.14;61.69
46303;BME280;32029;51.358;5.628;2023-05-02T07:45:13;102201.25;;;15.33;61.78
46303;BME280;32029;51.358;5.628;2023-05-02T07:47:40;102208.16;;;15.37;62.03
46303;BME280;32029;51.358;5.628;2023-05-02T07:50:07;102208.94;;;15.46;62.31
46303;BME280;32029;51.358;5.628;2023-05-02T07:52:34;102145.13;;;15.09;61.25
46303;BME280;32029;51.358;5.628;2023-05-02T07:55:01;102213.34;;;15.55;60.79
46303;BME280;32029;51.358;5.628;2023-05-02T07:57:28;102196.47;;;15.50;60.31
46303;BME280;32029;51.358;5.628;2023-05-02T07:59:54;102215.56;;;15.59;59.43
46303;BME280;32029;51.358;5.628;2023-05-02T08:02:22;102215.56;;;15.59;59.17
46303;BME280;32029;51.358;5.628;2023-05-02T08:04:49;102218.81;;;15.63;58.98
46303;BME280;32029;51.358;5.628;2023-05-02T08:07:16;102226.56;;;15.67;59.05
46303;BME280;32029;51.358;5.628;2023-05-02T08:09:42;102228.41;;;15.75;58.49
46303;BME280;32029;51.358;5.628;2023-05-02T08:12:09;102216.47;;;15.75;58.21
46303;BME280;32029;51.358;5.628;2023-05-02T08:14:37;102219.56;;;15.80;57.86
46303;BME280;32029;51.358;5.628;2023-05-02T08:17:03;102227.78;;;15.88;57.59
46303;BME280;32029;51.358;5.628;2023-05-02T08:19:30;102223.34;;;15.79;57.97
46303;BME280;32029;51.358;5.628;2023-05-02T08:21:57;102237.97;;;15.87;57.34
46303;BME280;32029;51.358;5.628;2023-05-02T08:24:24;102237.59;;;15.90;56.20
46303;BME280;32029;51.358;5.628;2023-05-02T08:26:51;102196.13;;;15.67;56.01
46303;BME280;32029;51.358;5.628;2023-05-02T08:29:17;102236.66;;;15.98;55.96
46303;BME280;32029;51.358;5.628;2023-05-02T08:31:44;102236.97;;;16.03;55.88
46303;BME280;32029;51.358;5.628;2023-05-02T08:34:11;102255.38;;;16.11;55.36
46303;BME280;32029;51.358;5.628;2023-05-02T08:36:38;102236.88;;;16.11;54.96
46303;BME280;32029;51.358;5.628;2023-05-02T08:39:05;102228.16;;;16.14;54.38
46303;BME280;32029;51.358;5.628;2023-05-02T08:41:33;102257.41;;;16.32;53.85
46303;BME280;32029;51.358;5.628;2023-05-02T08:44:02;102248.03;;;16.33;53.82
46303;BME280;32029;51.358;5.628;2023-05-02T08:46:29;102253.84;;;16.38;53.30
46303;BME280;32029;51.358;5.628;2023-05-02T08:48:57;102253.09;;;16.44;52.85
46303;BME280;32029;51.358;5.628;2023-05-02T08:51:24;102262.09;;;16.46;52.40
46303;BME280;32029;51.358;5.628;2023-05-02T08:53:54;102275.94;;;16.46;52.01
46303;BME280;32029;51.358;5.628;2023-05-02T08:56:22;102274.13;;;16.38;52.30
46303;BME280;32029;51.358;5.628;2023-05-02T08:58:50;102267.72;;;16.23;52.37
46303;BME280;32029;51.358;5.628;2023-05-02T09:01:21;102282.72;;;16.29;52.54
46303;BME280;32029;51.358;5.628;2023-05-02T09:03:48;102259.97;;;16.18;52.24
46303;BME280;32029;51.358;5.628;2023-05-02T09:06:19;102264.84;;;16.16;51.72
46303;BME280;32029;51.358;5.628;2023-05-02T09:08:50;102271.72;;;16.21;52.10
46303;BME280;32029;51.358;5.628;2023-05-02T09:11:18;102282.72;;;16.29;52.35
46303;BME280;32029;51.358;5.628;2023-05-02T09:13:47;102280.06;;;16.35;52.90
46303;BME280;32029;51.358;5.628;2023-05-02T09:16:19;102290.84;;;16.45;52.90
46303;BME280;32029;51.358;5.628;2023-05-02T09:18:55;102285.97;;;16.62;52.77
46303;BME280;32029;51.358;5.628;2023-05-02T09:21:24;102281.78;;;16.66;52.58
46303;BME280;32029;51.358;5.628;2023-05-02T09:23:56;102307.00;;;16.86;52.96
46303;BME280;32029;51.358;5.628;2023-05-02T09:26:28;102301.44;;;17.01;52.23
46303;BME280;32029;51.358;5.628;2023-05-02T09:29:02;102301.59;;;17.14;51.38
46303;BME280;32029;51.358;5.628;2023-05-02T09:31:31;102293.88;;;17.09;50.50
46303;BME280;32029;51.358;5.628;2023-05-02T09:34:11;102318.00;;;17.30;50.02
46303;BME280;32029;51.358;5.628;2023-05-02T09:36:39;102297.47;;;17.25;49.42
46303;BME280;32029;51.358;5.628;2023-05-02T09:39:11;102319.41;;;17.41;49.49
46303;BME280;32029;51.358;5.628;2023-05-02T09:41:42;102324.16;;;17.47;49.31
46303;BME280;32029;51.358;5.628;2023-05-02T09:44:10;102297.22;;;17.41;48.80
46303;BME280;32029;51.358;5.628;2023-05-02T09:46:42;102320.47;;;17.61;48.38
46303;BME280;32029;51.358;5.628;2023-05-02T09:49:09;102325.13;;;17.76;48.25
46303;BME280;32029;51.358;5.628;2023-05-02T09:51:36;102324.59;;;17.87;47.76
46303;BME280;32029;51.358;5.628;2023-05-02T09:54:03;102327.88;;;17.97;47.68
46303;BME280;32029;51.358;5.628;2023-05-02T09:56:29;102324.63;;;17.94;47.02
46303;BME280;32029;51.358;5.628;2023-05-02T09:59:16;102331.56;;;18.04;46.84
46303;BME280;32029;51.358;5.628;2023-05-02T10:01:43;102316.63;;;18.05;47.25
46303;BME280;32029;51.358;5.628;2023-05-02T10:04:12;102331.56;;;18.26;45.90
46303;BME280;32029;51.358;5.628;2023-05-02T10:06:45;102318.31;;;18.28;45.68
46303;BME280;32029;51.358;5.628;2023-05-02T10:09:14;102340.88;;;18.46;45.06
46303;BME280;32029;51.358;5.628;2023-05-02T10:11:41;102349.91;;;18.55;44.02
46303;BME280;32029;51.358;5.628;2023-05-02T10:14:10;102331.53;;;18.54;43.45
46303;BME280;32029;51.358;5.628;2023-05-02T10:16:46;102325.34;;;18.58;43.43
46303;BME280;32029;51.358;5.628;2023-05-02T10:19:23;102330.84;;;18.73;43.49
46303;BME280;32029;51.358;5.628;2023-05-02T10:21:52;102333.22;;;18.83;43.29
46303;BME280;32029;51.358;5.628;2023-05-02T10:24:20;102328.31;;;18.85;42.22
46303;BME280;32029;51.358;5.628;2023-05-02T10:26:47;102332.00;;;18.92;41.96
46303;BME280;32029;51.358;5.628;2023-05-02T10:29:13;102331.56;;;18.95;42.30
46303;BME280;32029;51.358;5.628;2023-05-02T10:31:42;102345.97;;;19.05;42.02
46303;BME280;32029;51.358;5.628;2023-05-02T10:34:10;102342.97;;;19.07;41.69
46303;BME280;32029;51.358;5.628;2023-05-02T10:36:37;102323.44;;;18.94;41.70
46303;BME280;32029;51.358;5.628;2023-05-02T10:39:05;102336.09;;;19.03;41.08
46303;BME280;32029;51.358;5.628;2023-05-02T10:41:33;102339.13;;;19.08;41.56
46303;BME280;32029;51.358;5.628;2023-05-02T10:44:01;102344.97;;;19.20;43.53
46303;BME280;32029;51.358;5.628;2023-05-02T10:46:39;102355.06;;;19.34;43.49
46303;BME280;32029;51.358;5.628;2023-05-02T10:49:08;102348.03;;;19.45;42.80
46303;BME280;32029;51.358;5.628;2023-05-02T10:51:38;102347.41;;;19.49;43.48
46303;BME280;32029;51.358;5.628;2023-05-02T10:59:37;102325.03;;;19.91;41.85
46303;BME280;32029;51.358;5.628;2023-05-02T11:05:04;102341.53;;;20.05;40.38
46303;BME280;32029;51.358;5.628;2023-05-02T11:07:34;102311.28;;;19.76;40.28
46303;BME280;32029;51.358;5.628;2023-05-02T11:15:52;102347.22;;;19.51;40.75
46303;BME280;32029;51.358;5.628;2023-05-02T11:18:13;102350.78;;;19.38;41.54
46303;BME280;32029;51.358;5.628;2023-05-02T11:20:43;102350.16;;;19.36;41.46
46303;BME280;32029;51.358;5.628;2023-05-02T11:25:48;102346.97;;;19.39;41.07
46303;BME280;32029;51.358;5.628;2023-05-02T11:33:55;102354.56;;;19.85;39.10
46303;BME280;32029;51.358;5.628;2023-05-02T11:36:33;102355.66;;;19.84;39.04
46303;BME280;32029;51.358;5.628;2023-05-02T11:39:02;102325.41;;;19.68;40.19
46303;BME280;32029;51.358;5.628;2023-05-02T11:41:40;102357.81;;;19.82;40.18
46303;BME280;32029;51.358;5.628;2023-05-02T11:44:07;102353.69;;;19.65;40.28
46303;BME280;32029;51.358;5.628;2023-05-02T11:46:39;102358.94;;;19.46;40.48
46303;BME280;32029;51.358;5.628;2023-05-02T11:49:07;102337.06;;;19.30;40.99
46303;BME280;32029;51.358;5.628;2023-05-02T11:51:34;102350.81;;;19.45;41.28
46303;BME280;32029;51.358;5.628;2023-05-02T11:54:00;102348.47;;;19.48;41.33
46303;BME280;32029;51.358;5.628;2023-05-02T11:56:27;102340.53;;;19.45;40.53
46303;BME280;32029;51.358;5.628;2023-05-02T11:59:01;102346.53;;;19.49;39.76
46303;BME280;32029;51.358;5.628;2023-05-02T12:01:29;102340.94;;;19.42;39.03
46303;BME280;32029;51.358;5.628;2023-05-02T12:04:06;102367.13;;;19.54;39.94
46303;BME280;32029;51.358;5.628;2023-05-02T12:06:33;102343.13;;;19.53;39.03
46303;BME280;32029;51.358;5.628;2023-05-02T12:09:08;102376.00;;;19.78;38.81
46303;BME280;32029;51.358;5.628;2023-05-02T12:11:35;102376.63;;;19.80;38.59
46303;BME280;32029;51.358;5.628;2023-05-02T12:14:03;102351.72;;;19.58;39.31
46303;BME280;32029;51.358;5.628;2023-05-02T12:16:31;102385.19;;;19.72;39.91
46303;BME280;32029;51.358;5.628;2023-05-02T12:18:58;102362.41;;;19.55;39.29
46303;BME280;32029;51.358;5.628;2023-05-02T12:21:27;102379.75;;;19.57;39.55
46303;BME280;32029;51.358;5.628;2023-05-02T12:23:55;102379.56;;;19.58;40.04
46303;BME280;32029;51.358;5.628;2023-05-02T12:26:24;102369.47;;;19.57;40.95
46303;BME280;32029;51.358;5.628;2023-05-02T12:28:54;102378.31;;;19.68;39.73
46303;BME280;32029;51.358;5.628;2023-05-02T12:31:22;102364.13;;;19.56;39.00
46303;BME280;32029;51.358;5.628;2023-05-02T12:33:49;102380.41;;;19.59;39.53
46303;BME280;32029;51.358;5.628;2023-05-02T12:36:18;102380.81;;;19.49;39.00
46303;BME280;32029;51.358;5.628;2023-05-02T12:38:51;102386.78;;;19.40;38.96
46303;BME280;32029;51.358;5.628;2023-05-02T12:41:36;102397.91;;;19.40;39.05
46303;BME280;32029;51.358;5.628;2023-05-02T12:44:06;102370.22;;;19.25;38.60
46303;BME280;32029;51.358;5.628;2023-05-02T12:46:33;102385.06;;;19.39;39.14
46303;BME280;32029;51.358;5.628;2023-05-02T12:49:07;102391.97;;;19.56;39.64
46303;BME280;32029;51.358;5.628;2023-05-02T12:51:34;102408.75;;;19.63;38.40
46303;BME280;32029;51.358;5.628;2023-05-02T12:54:02;102397.06;;;19.39;38.23
46303;BME280;32029;51.358;5.628;2023-05-02T12:56:29;102418.84;;;19.29;38.14
46303;BME280;32029;51.358;5.628;2023-05-02T12:59:03;102416.81;;;19.09;37.79
46303;BME280;32029;51.358;5.628;2023-05-02T13:01:34;102407.56;;;18.96;38.47
46303;BME280;32029;51.358;5.628;2023-05-02T13:04:01;102388.19;;;18.81;38.90
46303;BME280;32029;51.358;5.628;2023-05-02T13:06:28;102397.44;;;18.88;38.37
46303;BME280;32029;51.358;5.628;2023-05-02T13:08:54;102394.16;;;18.78;38.48
46303;BME280;32029;51.358;5.628;2023-05-02T13:11:21;102397.19;;;18.83;39.24
46303;BME280;32029;51.358;5.628;2023-05-02T13:13:48;102385.94;;;18.70;38.78
46303;BME280;32029;51.358;5.628;2023-05-02T13:16:14;102399.66;;;18.71;39.68
46303;BME280;32029;51.358;5.628;2023-05-02T13:18:41;102410.13;;;18.69;38.01
46303;BME280;32029;51.358;5.628;2023-05-02T13:21:08;102407.94;;;18.65;37.80
46303;BME280;32029;51.358;5.628;2023-05-02T13:23:35;102397.22;;;18.61;38.13
46303;BME280;32029;51.358;5.628;2023-05-02T13:26:02;102378.97;;;18.52;39.76
46303;BME280;32029;51.358;5.628;2023-05-02T13:28:29;102379.78;;;18.46;39.14
46303;BME280;32029;51.358;5.628;2023-05-02T13:30:58;102375.72;;;18.42;39.59
46303;BME280;32029;51.358;5.628;2023-05-02T13:33:25;102400.41;;;18.58;39.68
46303;BME280;32029;51.358;5.628;2023-05-02T13:35:51;102413.91;;;18.61;39.17